Overton RPC :: 300-B

liberation: 2021-10-16  07:30     latitude: 32.024120     longitude: -85.708148 49 birds
# LOFT PRING MILES ARRIVAL SPEED ToWin
1 VALHALLA LOFTS IF21-E-1411 303.36 2021-10-16 16:04:53.510 1036.945 00:00:00
2 VALHALLA LOFTS IF21-VALH-0184 303.36 2021-10-16 16:04:56.288 1036.852 00:00:03
3 VALHALLA LOFTS IF21-E-1415 303.36 2021-10-16 16:04:58.990 1036.761 00:00:05
4 VALHALLA LOFTS IF21-E-1498 303.36 2021-10-16 16:04:59.380 1036.748 00:00:06
5 VALHALLA LOFTS IF21-E-1442 303.36 2021-10-16 16:17:28.602 1012.205 00:12:35
6 VALHALLA LOFTS IF21-E-1500 303.36 2021-10-16 16:38:59.746 972.529 00:34:06
7 PHILBETTER LOFT IF21-E-1430 300.204 2021-10-16 16:35:27.352 968.656 00:35:55
8 PHILBETTER LOFT IF21-E-1429 300.204 2021-10-16 16:49:58.786 943.533 00:50:27
9 VALHALLA LOFTS IF21-VALH-0183 303.36 2021-10-16 16:59:42.072 937.183 00:54:49
10 VALHALLA LOFTS IF21-E-1580 303.36 2021-10-16 17:02:02.304 933.354 00:57:09
11 VALHALLA LOFTS AU21-ARPU-8999 303.36 2021-10-16 17:43:56.728 869.645 01:39:03
12 MONTEJANO LOFT IF21-E-1465 286.123 2021-10-16 17:19:17.204 854.552 01:43:39
13 VALHALLA LOFTS IF21-E-1499 303.36 2021-10-16 17:59:37.618 847.985 01:54:44
14 VALHALLA LOFTS IF21-E-1443 303.36 2021-10-17 08:25:50.006 669.933 04:42:05
15 VALHALLA LOFTS IF21-VALH-0188 303.36 2021-10-17 08:28:39.935 667.561 04:44:54
16 VALHALLA LOFTS IF21-E-1414 303.36 2021-10-17 08:28:44.138 667.502 04:44:59
17 VALHALLA LOFTS IF21-E-1445 303.36 2021-10-17 08:33:01.661 663.940 04:49:16
18 VALHALLA LOFTS AU21-ARPU-8989 303.36 2021-10-17 08:35:05.402 662.241 04:51:20
19 VALHALLA LOFTS IF21-VALH-0194 303.36 2021-10-17 08:37:17.313 660.440 04:53:32
20 VALHALLA LOFTS IF21-E-1450 303.36 2021-10-17 08:59:29.927 642.781 05:15:44
21 VALHALLA LOFTS IF21-E-1446 303.36 2021-10-17 09:08:47.539 635.669 05:25:02
22 VALHALLA LOFTS IF21-VALH-0192 303.36 2021-10-17 09:37:57.477 614.336 05:54:12
23 VALHALLA LOFTS IF21-VALH-0176 303.36 2021-10-17 09:44:31.825 609.725 06:00:46
24 VALHALLA LOFTS IF21-VALH-0123 303.36 2021-10-17 10:49:25.755 567.654 07:05:40
25 LET IT GO LOFT IF21-E-1405 302.323 2021-10-17 13:43:42.650 477.277 10:01:43
LET IT GO LOFT IF21-E-1459 0 0000-00-00 00:00:00.000 0.000 00:00:00
MONTEJANO LOFT IF21-E-1330 0 0000-00-00 00:00:00.000 0.000 00:00:00
PHILBETTER LOFT IF21-E-1422 0 0000-00-00 00:00:00.000 0.000 00:00:00
PHILBETTER LOFT IF21-E-1426 0 0000-00-00 00:00:00.000 0.000 00:00:00
PHILBETTER LOFT IF21-E-1427 0 0000-00-00 00:00:00.000 0.000 00:00:00
VALHALLA LOFTS AU21-BREW-2154 0 0000-00-00 00:00:00.000 0.000 00:00:00
VALHALLA LOFTS IF21-E-1412 0 0000-00-00 00:00:00.000 0.000 00:00:00
VALHALLA LOFTS IF21-E-1413 0 0000-00-00 00:00:00.000 0.000 00:00:00
VALHALLA LOFTS IF21-E-1416 0 0000-00-00 00:00:00.000 0.000 00:00:00
VALHALLA LOFTS IF21-E-1444 0 0000-00-00 00:00:00.000 0.000 00:00:00
VALHALLA LOFTS IF21-E-1495 0 0000-00-00 00:00:00.000 0.000 00:00:00
VALHALLA LOFTS IF21-E-1497 0 0000-00-00 00:00:00.000 0.000 00:00:00
VALHALLA LOFTS IF21-VALH-0102 0 0000-00-00 00:00:00.000 0.000 00:00:00
VALHALLA LOFTS IF21-VALH-0114 0 0000-00-00 00:00:00.000 0.000 00:00:00
VALHALLA LOFTS IF21-VALH-0116 0 0000-00-00 00:00:00.000 0.000 00:00:00
VALHALLA LOFTS IF21-VALH-0128 0 0000-00-00 00:00:00.000 0.000 00:00:00
VALHALLA LOFTS IF21-VALH-0129 0 0000-00-00 00:00:00.000 0.000 00:00:00
VALHALLA LOFTS IF21-VALH-0145 0 0000-00-00 00:00:00.000 0.000 00:00:00
VALHALLA LOFTS IF21-VALH-0149 0 0000-00-00 00:00:00.000 0.000 00:00:00
VALHALLA LOFTS IF21-VALH-0168 0 0000-00-00 00:00:00.000 0.000 00:00:00
VALHALLA LOFTS IF21-VALH-0169 0 0000-00-00 00:00:00.000 0.000 00:00:00
VALHALLA LOFTS IF21-VALH-0177 0 0000-00-00 00:00:00.000 0.000 00:00:00
VALHALLA LOFTS IF21-VALH-0186 0 0000-00-00 00:00:00.000 0.000 00:00:00
VALHALLA LOFTS IF21-VALH-0196 0 0000-00-00 00:00:00.000 0.000 00:00:00